Time;durP1;ratioP1;P1;durP2;ratioP2;P2;SDS_P1;SDS_P2;PMS_P1;PMS_P2;Temp;Humidity;BMP_temperature;BMP_pressure;BME280_temperature;BME280_humidity;BME280_pressure;Samples;Min_cycle;Max_cycle;Signal;HPM_P1;HPM_P2
2024/02/10 00:04:14;;;;;;;;;;;;;;;21.08;38.31;93085.94;10519313;28;1944;-71
2024/02/10 00:09:14;;;;;;;;;;;;;;;21.04;39.19;93097.13;10535814;27;2113;-71
2024/02/10 00:14:17;;;;;;;;;;;;;;;21.04;38.20;93088.47;10539552;28;1948;-70
2024/02/10 00:19:18;;;;;;;;;;;;;;;21.04;38.56;93086.59;10506954;28;1870;-70
2024/02/10 00:24:20;;;;;;;;;;;;;;;21.02;39.32;93085.41;10520448;28;2024;-71
2024/02/10 00:29:22;;;;;;;;;;;;;;;21.01;39.52;93079.34;10522752;28;1960;-70
2024/02/10 00:34:28;;;;;;;;;;;;;;;21.00;38.59;93075.19;10518036;28;2056;-70
2024/02/10 00:39:28;;;;;;;;;;;;;;;20.98;39.25;93085.28;10486779;28;2114;-70
2024/02/10 00:44:29;;;;;;;;;;;;;;;20.97;39.82;93081.13;10517566;28;2026;-70
2024/02/10 00:49:30;;;;;;;;;;;;;;;20.95;39.98;93080.72;10539902;27;1952;-70
2024/02/10 00:54:30;;;;;;;;;;;;;;;20.94;39.94;93086.28;10502058;28;2944;-70
2024/02/10 00:59:31;;;;;;;;;;;;;;;20.92;39.92;93084.00;10496970;28;2065;-71
2024/02/10 01:04:31;;;;;;;;;;;;;;;20.91;40.12;93087.75;10521786;28;1989;-71
2024/02/10 01:09:32;;;;;;;;;;;;;;;20.91;40.06;93085.13;10534077;27;2023;-70
2024/02/10 01:14:32;;;;;;;;;;;;;;;20.89;39.62;93087.34;10518648;28;2122;-69
2024/02/10 01:19:32;;;;;;;;;;;;;;;20.89;39.74;93086.56;10502929;28;2106;-69
2024/02/10 01:24:34;;;;;;;;;;;;;;;20.86;40.24;93079.34;10523516;28;2117;-70
2024/02/10 01:29:34;;;;;;;;;;;;;;;20.86;39.47;93072.19;10518162;28;2138;-69
2024/02/10 01:34:34;;;;;;;;;;;;;;;20.84;39.52;93069.16;10518270;28;2683;-70
2024/02/10 01:39:35;;;;;;;;;;;;;;;20.82;39.99;93062.69;10508373;28;1938;-70
2024/02/10 01:44:35;;;;;;;;;;;;;;;20.82;40.49;93060.06;10537666;28;2090;-70
2024/02/10 01:49:37;;;;;;;;;;;;;;;20.80;40.04;93057.75;10519115;28;2111;-70
2024/02/10 01:54:38;;;;;;;;;;;;;;;20.79;39.68;93053.59;10534202;28;2031;-70
2024/02/10 01:59:38;;;;;;;;;;;;;;;20.77;39.93;93052.41;10527476;28;2193;-69
2024/02/10 02:04:39;;;;;;;;;;;;;;;20.77;40.06;93047.91;10519050;28;2122;-69
2024/02/10 02:09:39;;;;;;;;;;;;;;;20.76;39.88;93041.13;10507769;28;1971;-69
2024/02/10 02:14:41;;;;;;;;;;;;;;;20.73;40.45;93033.88;10540455;28;2762;-69
2024/02/10 02:19:42;;;;;;;;;;;;;;;20.73;40.17;93039.16;10481447;28;2051;-70
2024/02/10 02:24:43;;;;;;;;;;;;;;;20.72;40.01;93050.03;10544763;27;2012;-69
2024/02/10 02:29:44;;;;;;;;;;;;;;;20.71;40.19;93045.88;10509993;28;2066;-70
2024/02/10 02:34:44;;;;;;;;;;;;;;;20.69;40.56;93043.56;10526591;28;1940;-69
2024/02/10 02:39:45;;;;;;;;;;;;;;;20.69;40.40;93051.47;10541611;27;1912;-70
2024/02/10 02:44:45;;;;;;;;;;;;;;;20.67;39.90;93048.41;10524663;28;1931;-71
2024/02/10 02:49:46;;;;;;;;;;;;;;;20.67;40.46;93050.28;10528074;28;2450;-69
2024/02/10 02:54:47;;;;;;;;;;;;;;;20.65;40.15;93037.44;10526889;28;1917;-69
2024/02/10 02:59:48;;;;;;;;;;;;;;;20.65;40.40;93026.91;10523253;28;2636;-70
2024/02/10 03:04:50;;;;;;;;;;;;;;;20.63;40.20;93034.38;10527793;28;1928;-68
2024/02/10 03:09:50;;;;;;;;;;;;;;;20.62;40.49;93030.25;10504895;28;1994;-69
2024/02/10 03:14:51;;;;;;;;;;;;;;;20.62;40.26;93027.59;10520513;28;1953;-70
2024/02/10 03:19:52;;;;;;;;;;;;;;;20.60;40.09;93021.91;10524259;28;2147;-71
2024/02/10 03:24:53;;;;;;;;;;;;;;;20.59;40.19;93028.28;10527662;28;2055;-71
2024/02/10 03:29:53;;;;;;;;;;;;;;;20.58;40.25;93023.34;10539512;28;2042;-70
2024/02/10 03:34:54;;;;;;;;;;;;;;;20.57;40.27;93011.28;10540681;27;1972;-71
2024/02/10 03:39:54;;;;;;;;;;;;;;;20.56;40.26;93013.16;10524795;28;2107;-72
2024/02/10 03:44:54;;;;;;;;;;;;;;;20.54;40.15;93006.72;10519474;28;2537;-71
2024/02/10 03:49:54;;;;;;;;;;;;;;;20.54;40.39;93012.75;10505012;28;2210;-69
2024/02/10 03:54:58;;;;;;;;;;;;;;;20.53;40.23;93013.84;10503004;28;1981;-70
2024/02/10 03:59:58;;;;;;;;;;;;;;;20.52;40.31;93014.94;10503926;28;1992;-70
2024/02/10 04:04:58;;;;;;;;;;;;;;;20.51;40.49;93007.38;10509164;28;2134;-70
2024/02/10 04:09:58;;;;;;;;;;;;;;;20.50;40.37;93005.84;10540866;27;1875;-70
2024/02/10 04:15:00;;;;;;;;;;;;;;;20.48;40.31;93000.94;10540614;27;2038;-71
2024/02/10 04:20:01;;;;;;;;;;;;;;;20.48;40.18;92998.31;10523481;28;2067;-71
2024/02/10 04:25:02;;;;;;;;;;;;;;;20.47;40.07;92994.13;10522815;28;1976;-70
2024/02/10 04:30:06;;;;;;;;;;;;;;;20.45;40.39;92996.34;10531150;28;2630;-68
2024/02/10 04:35:06;;;;;;;;;;;;;;;20.44;40.05;93013.25;10503496;28;2025;-69
2024/02/10 04:40:07;;;;;;;;;;;;;;;20.42;40.11;93004.94;10504876;28;2015;-71
2024/02/10 04:45:07;;;;;;;;;;;;;;;20.42;40.23;93004.94;10521689;28;1992;-70
2024/02/10 04:50:11;;;;;;;;;;;;;;;20.42;40.23;93012.81;10525438;28;1992;-70
2024/02/10 04:55:13;;;;;;;;;;;;;;;20.41;40.23;93010.50;10528594;28;2044;-69
2024/02/10 05:00:17;;;;;;;;;;;;;;;20.39;40.14;93010.84;10525042;28;2103;-70
2024/02/10 05:05:18;;;;;;;;;;;;;;;20.40;40.07;93016.88;10522764;28;2031;-70
2024/02/10 05:10:18;;;;;;;;;;;;;;;20.39;40.64;93016.13;10524362;28;2493;-72
2024/02/10 05:15:19;;;;;;;;;;;;;;;20.43;40.18;93016.19;10534561;27;2004;-71
2024/02/10 05:20:21;;;;;;;;;;;;;;;20.46;40.38;93024.19;10508539;28;2056;-70
2024/02/10 05:25:22;;;;;;;;;;;;;;;20.55;39.83;93014.25;10524854;28;1960;-73
2024/02/10 05:30:26;;;;;;;;;;;;;;;20.59;39.12;93009.84;10505228;28;1948;-69
2024/02/10 05:35:26;;;;;;;;;;;;;;;20.63;39.21;93002.06;10506311;28;1909;-71
2024/02/10 05:40:27;;;;;;;;;;;;;;;20.66;38.99;92996.88;10527354;28;2452;-70
2024/02/10 05:45:28;;;;;;;;;;;;;;;20.71;39.31;92980.81;10490742;28;1910;-70
2024/02/10 05:50:29;;;;;;;;;;;;;;;20.73;38.67;92975.97;10524652;28;2433;-70
2024/02/10 05:55:29;;;;;;;;;;;;;;;20.78;38.34;92967.81;10521275;28;2002;-70
2024/02/10 06:00:29;;;;;;;;;;;;;;;20.84;38.23;92968.31;10515764;28;2111;-69
2024/02/10 06:05:30;;;;;;;;;;;;;;;20.85;38.71;92970.63;10519012;28;2051;-70
2024/02/10 06:10:30;;;;;;;;;;;;;;;20.90;38.33;92967.72;10521484;28;1929;-69
2024/02/10 06:15:30;;;;;;;;;;;;;;;20.93;38.60;92961.78;10520363;28;2060;-70
2024/02/10 06:20:31;;;;;;;;;;;;;;;20.98;38.38;92964.16;10520283;28;2264;-71
2024/02/10 06:25:31;;;;;;;;;;;;;;;21.00;38.22;92961.94;10519823;28;2024;-69
2024/02/10 06:30:33;;;;;;;;;;;;;;;21.02;38.37;92967.66;10519827;28;2009;-70
2024/02/10 06:35:34;;;;;;;;;;;;;;;21.01;38.17;92974.00;10517668;28;2458;-71
2024/02/10 06:40:34;;;;;;;;;;;;;;;21.08;37.82;92967.41;10521310;28;1908;-71
2024/02/10 06:45:36;;;;;;;;;;;;;;;21.07;37.84;92979.81;10512109;28;2468;-70
2024/02/10 06:50:36;;;;;;;;;;;;;;;21.13;38.00;92988.97;10516994;28;2113;-69
2024/02/10 06:55:37;;;;;;;;;;;;;;;21.12;38.28;92978.78;10519392;28;2067;-70
2024/02/10 07:00:40;;;;;;;;;;;;;;;21.17;37.69;92975.88;10518122;28;2032;-71
2024/02/10 07:05:45;;;;;;;;;;;;;;;21.17;37.59;92978.50;10502194;28;2232;-69
2024/02/10 07:10:46;;;;;;;;;;;;;;;21.17;38.01;92991.66;10506826;28;1957;-70
2024/02/10 07:15:46;;;;;;;;;;;;;;;21.20;37.36;92988.38;10537538;27;2058;-70
2024/02/10 07:20:46;;;;;;;;;;;;;;;21.17;37.86;92987.19;10525239;28;1994;-68
2024/02/10 07:25:47;;;;;;;;;;;;;;;21.17;38.01;92997.72;10515298;28;2835;-68
2024/02/10 07:30:51;;;;;;;;;;;;;;;21.24;37.70;92991.84;10502984;28;2233;-69
2024/02/10 07:35:52;;;;;;;;;;;;;;;21.22;38.03;92991.41;10501889;28;2073;-69
2024/02/10 07:40:54;;;;;;;;;;;;;;;21.22;38.04;93005.38;10525068;28;2052;-69
2024/02/10 07:45:54;;;;;;;;;;;;;;;21.27;37.92;92988.53;10519527;28;1932;-69
2024/02/10 07:50:55;;;;;;;;;;;;;;;21.25;38.37;92991.50;10521588;28;2051;-69
2024/02/10 07:55:57;;;;;;;;;;;;;;;21.31;37.95;92984.84;10505953;28;2049;-69
2024/02/10 08:01:01;;;;;;;;;;;;;;;21.33;38.51;92979.25;10524087;28;2139;-69
2024/02/10 08:06:01;;;;;;;;;;;;;;;21.34;38.18;92970.22;10519022;28;2542;-69
2024/02/10 08:11:02;;;;;;;;;;;;;;;21.37;38.31;92972.19;10503403;28;1933;-75
2024/02/10 08:16:02;;;;;;;;;;;;;;;21.39;37.96;92975.97;10522391;28;1900;-69
2024/02/10 08:21:06;;;;;;;;;;;;;;;21.41;38.16;92981.66;10520889;28;1997;-69
2024/02/10 08:26:07;;;;;;;;;;;;;;;21.42;38.44;92977.94;10499507;28;2286;-69
2024/02/10 08:31:07;;;;;;;;;;;;;;;21.46;38.32;92985.91;10504838;28;2056;-69
2024/02/10 08:36:07;;;;;;;;;;;;;;;21.45;38.18;92990.41;10539361;27;1948;-69
2024/02/10 08:41:07;;;;;;;;;;;;;;;21.46;38.16;93004.38;10507387;28;1995;-68
2024/02/10 08:46:08;;;;;;;;;;;;;;;21.47;38.53;93011.94;10521297;28;2091;-69
2024/02/10 08:51:11;;;;;;;;;;;;;;;21.49;37.85;93015.00;10534007;28;2671;-69
2024/02/10 08:56:11;;;;;;;;;;;;;;;21.48;38.17;92992.38;10534202;27;2066;-69
2024/02/10 09:01:18;;;;;;;;;;;;;;;21.56;37.74;93019.63;10521190;28;2174;-68
2024/02/10 09:06:21;;;;;;;;;;;;;;;21.52;37.52;93014.28;10535996;27;2063;-72
2024/02/10 09:11:22;;;;;;;;;;;;;;;21.57;37.64;93014.03;10521948;28;2004;-70
2024/02/10 09:16:26;;;;;;;;;;;;;;;21.54;37.59;93024.50;10518942;28;2019;-72
2024/02/10 09:21:26;;;;;;;;;;;;;;;21.48;38.15;93029.28;10531544;28;2303;-70
2024/02/10 09:26:26;;;;;;;;;;;;;;;21.50;38.21;93013.88;10511136;28;1933;-69
2024/02/10 09:31:28;;;;;;;;;;;;;;;21.49;38.16;93004.47;10519111;28;2526;-70
2024/02/10 09:36:29;;;;;;;;;;;;;;;21.52;38.52;93000.34;10516816;28;2047;-70
2024/02/10 09:41:29;;;;;;;;;;;;;;;21.52;37.96;93003.75;10518430;28;2130;-69
2024/02/10 09:46:35;;;;;;;;;;;;;;;21.55;38.04;93002.31;10521646;28;1952;-70
2024/02/10 09:51:45;;;;;;;;;;;;;;;21.55;38.08;93010.22;10520877;28;2072;-70
2024/02/10 09:56:45;;;;;;;;;;;;;;;21.57;38.08;93010.63;10518440;28;2037;-69
2024/02/10 10:01:46;;;;;;;;;;;;;;;21.56;37.79;93012.50;10517982;28;2072;-70
2024/02/10 10:06:46;;;;;;;;;;;;;;;21.56;38.07;93003.81;10520728;28;2044;-69
2024/02/10 10:11:50;;;;;;;;;;;;;;;21.60;37.65;93000.16;10517838;28;2092;-69
2024/02/10 10:16:56;;;;;;;;;;;;;;;21.57;38.05;93002.72;10534195;28;1881;-69
2024/02/10 10:21:56;;;;;;;;;;;;;;;21.60;38.14;93008.06;10536631;28;1910;-67
2024/02/10 10:26:56;;;;;;;;;;;;;;;21.61;38.26;93000.94;10512739;28;2591;-68
2024/02/10 10:31:59;;;;;;;;;;;;;;;21.61;38.06;92990.38;10535447;28;1882;-67
2024/02/10 10:37:00;;;;;;;;;;;;;;;21.67;37.71;92983.72;10510956;28;2191;-68
2024/02/10 10:42:00;;;;;;;;;;;;;;;21.66;37.72;92971.63;10521300;28;2038;-68
2024/02/10 10:47:00;;;;;;;;;;;;;;;21.64;38.18;92950.13;10531042;28;1984;-69
2024/02/10 10:52:05;;;;;;;;;;;;;;;21.67;38.08;92931.00;10523876;28;1921;-69
2024/02/10 10:57:12;;;;;;;;;;;;;;;21.67;38.30;92915.94;10526893;28;2049;-69
2024/02/10 11:02:14;;;;;;;;;;;;;;;21.69;38.01;92907.69;10507180;28;1944;-73
2024/02/10 11:07:17;;;;;;;;;;;;;;;21.69;37.92;92907.69;10511752;28;2021;-70
2024/02/10 11:12:17;;;;;;;;;;;;;;;21.79;38.48;92901.84;10533143;27;2568;-75
2024/02/10 11:17:17;;;;;;;;;;;;;;;21.80;37.63;92908.66;10543598;27;2048;-75
2024/02/10 11:22:22;;;;;;;;;;;;;;;21.50;37.99;92883.97;10544673;27;2292;-70
2024/02/10 11:27:24;;;;;;;;;;;;;;;21.35;38.78;92871.63;10523128;28;2047;-70
2024/02/10 11:32:26;;;;;;;;;;;;;;;21.08;39.46;92867.31;10522097;28;2181;-72
2024/02/10 11:37:26;;;;;;;;;;;;;;;21.06;41.36;92870.31;10514507;28;2006;-72
2024/02/10 11:42:30;;;;;;;;;;;;;;;21.21;41.89;92858.16;10519783;28;2182;-72
2024/02/10 11:47:30;;;;;;;;;;;;;;;21.29;41.89;92857.22;10508228;28;1991;-75
2024/02/10 11:52:32;;;;;;;;;;;;;;;21.37;42.73;92832.53;10522465;28;1897;-76
2024/02/10 11:57:32;;;;;;;;;;;;;;;21.43;42.00;92831.13;10520716;28;2792;-74
2024/02/10 12:02:32;;;;;;;;;;;;;;;21.45;42.49;92818.38;10534912;27;1920;-74
2024/02/10 12:07:35;;;;;;;;;;;;;;;21.47;41.95;92816.94;10522009;28;1992;-75
2024/02/10 12:12:35;;;;;;;;;;;;;;;21.52;43.07;92811.34;10514647;28;2051;-74
2024/02/10 12:17:37;;;;;;;;;;;;;;;21.53;41.48;92805.00;10539316;27;2208;-74
2024/02/10 12:22:37;;;;;;;;;;;;;;;21.50;40.65;92792.50;10503476;28;2065;-73
2024/02/10 12:27:38;;;;;;;;;;;;;;;21.45;40.18;92799.94;10530428;28;2192;-74
2024/02/10 12:32:38;;;;;;;;;;;;;;;21.46;40.53;92790.91;10525427;28;2159;-75
2024/02/10 12:37:38;;;;;;;;;;;;;;;21.51;39.65;92798.53;10518330;28;2802;-74
2024/02/10 12:42:42;;;;;;;;;;;;;;;21.49;39.71;92792.84;10519216;28;1984;-73
2024/02/10 12:47:43;;;;;;;;;;;;;;;21.46;39.95;92775.84;10533187;27;2058;-74
2024/02/10 12:52:45;;;;;;;;;;;;;;;21.48;39.87;92757.81;10519278;28;2047;-73
2024/02/10 12:57:45;;;;;;;;;;;;;;;21.49;40.19;92748.06;10501387;28;1946;-73
2024/02/10 13:02:46;;;;;;;;;;;;;;;21.53;39.09;92754.16;10523823;28;1914;-72
2024/02/10 13:07:47;;;;;;;;;;;;;;;21.48;39.76;92754.41;10529771;27;1959;-71
2024/02/10 13:12:53;;;;;;;;;;;;;;;21.48;40.11;92743.88;10518803;28;1952;-72
2024/02/10 13:17:54;;;;;;;;;;;;;;;21.49;40.03;92735.63;10505085;28;2110;-71
2024/02/10 13:22:54;;;;;;;;;;;;;;;21.49;39.27;92740.16;10516653;28;3299;-71
2024/02/10 13:27:55;;;;;;;;;;;;;;;21.48;39.41;92728.06;10520545;28;1985;-72
2024/02/10 13:32:56;;;;;;;;;;;;;;;21.47;39.45;92723.91;10517950;28;2004;-71
2024/02/10 14:04:16;;;;;;;;;;;;;;;21.41;40.56;92680.53;10515599;28;2630;-73
2024/02/10 14:09:21;;;;;;;;;;;;;;;21.38;40.55;92681.22;10517240;28;1940;-72
2024/02/10 14:14:21;;;;;;;;;;;;;;;21.37;40.83;92691.00;10513907;28;2010;-73
2024/02/10 14:19:23;;;;;;;;;;;;;;;21.38;40.95;92686.50;10520405;28;2100;-72
2024/02/10 14:24:23;;;;;;;;;;;;;;;21.36;41.37;92689.47;10509960;28;2205;-73
2024/02/10 14:29:33;;;;;;;;;;;;;;;21.34;41.12;92667.22;10507648;28;2069;-72
2024/02/10 14:34:39;;;;;;;;;;;;;;;21.32;40.56;92666.81;10513332;28;2291;-72
2024/02/10 14:39:39;;;;;;;;;;;;;;;21.28;40.46;92666.75;10510197;28;2087;-74
2024/02/10 14:44:41;;;;;;;;;;;;;;;21.28;40.82;92668.63;10524067;28;2314;-74
2024/02/10 14:49:41;;;;;;;;;;;;;;;21.28;40.99;92671.28;10527171;28;2000;-74
2024/02/10 14:54:42;;;;;;;;;;;;;;;21.28;40.78;92666.75;10511903;28;1937;-73
2024/02/10 14:59:44;;;;;;;;;;;;;;;21.28;40.53;92655.47;10534093;28;2063;-72
2024/02/10 15:04:47;;;;;;;;;;;;;;;21.28;39.96;92663.38;10535193;28;1991;-72
2024/02/10 15:09:47;;;;;;;;;;;;;;;21.29;40.70;92662.25;10530905;28;1977;-73
2024/02/10 15:14:47;;;;;;;;;;;;;;;21.32;40.30;92651.00;10506421;28;2057;-73
2024/02/10 15:19:48;;;;;;;;;;;;;;;21.34;40.27;92654.06;10509036;28;2095;-74
2024/02/10 15:24:48;;;;;;;;;;;;;;;21.35;40.38;92642.41;10524544;28;2122;-73
2024/02/10 15:29:56;;;;;;;;;;;;;;;21.35;40.84;92631.88;10517971;28;2189;-74
2024/02/10 15:35:01;;;;;;;;;;;;;;;21.35;40.31;92618.69;10522877;28;2463;-77
2024/02/10 15:40:01;;;;;;;;;;;;;;;21.34;40.05;92614.53;10524908;28;2234;-75
2024/02/10 15:45:02;;;;;;;;;;;;;;;21.33;40.24;92615.66;10501358;28;2077;-75
2024/02/10 15:50:02;;;;;;;;;;;;;;;21.32;40.21;92622.81;10520273;28;1909;-73
2024/02/10 15:55:05;;;;;;;;;;;;;;;21.31;40.08;92617.88;10519611;28;2126;-72
2024/02/10 16:00:05;;;;;;;;;;;;;;;21.31;40.07;92623.16;10484418;28;2115;-73
2024/02/10 16:05:15;;;;;;;;;;;;;;;21.30;39.56;92611.09;10521364;28;2039;-72
2024/02/10 16:10:15;;;;;;;;;;;;;;;21.28;39.64;92606.19;10524046;28;2022;-73
2024/02/10 16:15:22;;;;;;;;;;;;;;;21.26;39.57;92595.22;10503656;28;2954;-73
2024/02/10 16:20:22;;;;;;;;;;;;;;;21.24;39.92;92601.97;10504486;28;2088;-73
2024/02/10 16:25:27;;;;;;;;;;;;;;;21.24;39.97;92601.97;10487227;28;2218;-73
2024/02/10 16:30:32;;;;;;;;;;;;;;;21.21;39.88;92598.16;10522786;28;2084;-74
2024/02/10 16:35:32;;;;;;;;;;;;;;;21.21;39.85;92607.91;10507186;28;2140;-74
2024/02/10 16:40:35;;;;;;;;;;;;;;;21.17;39.50;92605.22;10525374;28;2079;-74
2024/02/10 16:45:35;;;;;;;;;;;;;;;21.15;40.21;92590.88;10507297;28;1976;-75
2024/02/10 16:50:38;;;;;;;;;;;;;;;21.14;39.43;92592.78;10521071;28;2018;-74
2024/02/10 16:55:40;;;;;;;;;;;;;;;21.13;39.19;92591.25;10531523;28;2158;-72
2024/02/10 17:00:41;;;;;;;;;;;;;;;21.13;39.76;92593.13;10488877;28;1944;-73
2024/02/10 17:05:55;;;;;;;;;;;;;;;21.12;38.93;92588.97;10505927;28;1958;-71
2024/02/10 17:10:55;;;;;;;;;;;;;;;21.11;39.48;92585.56;10518710;28;2313;-71
2024/02/10 17:15:55;;;;;;;;;;;;;;;21.15;39.42;92598.78;10531782;27;1990;-76
2024/02/10 17:21:00;;;;;;;;;;;;;;;21.18;39.16;92592.84;10504637;28;1896;-72
2024/02/10 17:26:06;;;;;;;;;;;;;;;21.21;38.70;92587.59;10519400;28;2075;-71
2024/02/10 17:31:10;;;;;;;;;;;;;;;21.29;38.85;92594.50;10529790;28;1888;-74
2024/02/10 17:36:11;;;;;;;;;;;;;;;21.29;39.27;92589.25;10515138;28;2040;-69
2024/02/10 17:41:12;;;;;;;;;;;;;;;21.30;38.88;92590.00;10519169;28;1996;-72
2024/02/10 17:46:14;;;;;;;;;;;;;;;21.32;38.57;92587.78;10528100;27;2004;-74
2024/02/10 17:51:15;;;;;;;;;;;;;;;21.32;38.30;92598.31;10529697;28;2065;-74
2024/02/10 17:56:15;;;;;;;;;;;;;;;21.40;37.96;92592.81;10515730;28;2421;-72
2024/02/10 18:01:20;;;;;;;;;;;;;;;21.47;37.37;92584.25;10521491;28;1900;-71
2024/02/10 18:06:20;;;;;;;;;;;;;;;21.48;37.38;92596.31;10536886;27;1958;-71
2024/02/10 18:11:20;;;;;;;;;;;;;;;21.55;37.17;92594.56;10514479;28;2246;-70
2024/02/10 18:16:22;;;;;;;;;;;;;;;21.60;36.87;92601.38;10494883;28;1997;-70
2024/02/10 18:21:24;;;;;;;;;;;;;;;21.57;37.22;92596.81;10517529;28;2020;-74
2024/02/10 18:26:27;;;;;;;;;;;;;;;21.63;36.98;92598.03;10502387;28;1960;-71
2024/02/10 18:31:27;;;;;;;;;;;;;;;21.62;37.08;92601.78;10524939;28;1950;-71
2024/02/10 18:36:29;;;;;;;;;;;;;;;21.62;37.03;92592.00;10521551;28;2651;-71
2024/02/10 18:41:29;;;;;;;;;;;;;;;21.65;37.09;92595.81;10517204;28;2233;-70
2024/02/10 18:46:29;;;;;;;;;;;;;;;21.65;36.87;92601.84;10519207;28;2048;-70
2024/02/10 18:51:34;;;;;;;;;;;;;;;21.68;36.79;92610.91;10519548;28;1968;-71
2024/02/10 18:56:35;;;;;;;;;;;;;;;21.63;36.83;92606.72;10485843;28;2059;-71
2024/02/10 19:01:36;;;;;;;;;;;;;;;21.73;36.27;92598.19;10511556;28;1993;-75
2024/02/10 19:06:37;;;;;;;;;;;;;;;21.70;36.37;92603.44;10521131;28;2087;-75
2024/02/10 19:11:37;;;;;;;;;;;;;;;21.66;36.25;92597.31;10525540;28;2067;-76
2024/02/10 19:16:38;;;;;;;;;;;;;;;21.70;35.87;92598.88;10536280;28;2079;-78
2024/02/10 19:21:39;;;;;;;;;;;;;;;21.66;36.43;92603.34;10526217;28;2350;-78
2024/02/10 19:26:39;;;;;;;;;;;;;;;21.69;36.46;92602.66;10520749;28;2012;-74
2024/02/10 19:31:40;;;;;;;;;;;;;;;21.76;36.50;92602.00;10541063;28;2011;-75
2024/02/10 19:36:40;;;;;;;;;;;;;;;21.79;36.14;92598.63;10505169;28;2057;-74
2024/02/10 19:41:44;;;;;;;;;;;;;;;21.91;35.65;92603.72;10523534;28;2052;-69
2024/02/10 19:46:47;;;;;;;;;;;;;;;21.90;35.94;92606.72;10501749;28;1973;-66
2024/02/10 19:51:47;;;;;;;;;;;;;;;21.89;35.78;92605.97;10520347;28;2220;-65
2024/02/10 19:56:48;;;;;;;;;;;;;;;21.90;35.63;92609.38;10538309;28;1945;-65
2024/02/10 20:01:48;;;;;;;;;;;;;;;21.90;35.29;92618.03;10522886;28;1985;-65
2024/02/10 20:06:49;;;;;;;;;;;;;;;21.88;36.00;92610.47;10522295;28;2041;-69
2024/02/10 20:11:49;;;;;;;;;;;;;;;21.93;35.15;92606.75;10524895;28;2028;-72
2024/02/10 20:16:53;;;;;;;;;;;;;;;21.94;35.40;92610.94;10533700;27;2927;-66
2024/02/10 20:21:55;;;;;;;;;;;;;;;21.92;35.42;92605.25;10504730;28;2095;-66
2024/02/10 20:26:56;;;;;;;;;;;;;;;21.92;35.23;92609.78;10520312;28;2110;-65
2024/02/10 20:31:57;;;;;;;;;;;;;;;21.88;35.72;92615.75;10525157;28;1924;-68
2024/02/10 20:36:58;;;;;;;;;;;;;;;21.79;35.47;92599.41;10524775;28;2115;-67
2024/02/10 20:41:58;;;;;;;;;;;;;;;20.89;34.07;92613.41;10523970;28;1884;-69
2024/02/10 20:47:02;;;;;;;;;;;;;;;20.29;33.75;92614.16;10523611;28;2282;-68
2024/02/10 20:52:03;;;;;;;;;;;;;;;20.05;34.79;92617.75;10523659;28;1984;-65
2024/02/10 20:57:05;;;;;;;;;;;;;;;20.23;35.52;92623.44;10520219;28;2314;-66
2024/02/10 21:02:06;;;;;;;;;;;;;;;20.35;36.14;92618.03;10524681;28;1921;-66
2024/02/10 21:07:07;;;;;;;;;;;;;;;20.46;36.16;92623.50;10534246;27;2812;-66
2024/02/10 21:12:08;;;;;;;;;;;;;;;20.55;36.77;92643.22;10500745;28;2057;-65
2024/02/10 21:17:08;;;;;;;;;;;;;;;20.63;37.69;92636.97;10520546;28;1917;-59
2024/02/10 21:22:08;;;;;;;;;;;;;;;20.72;37.49;92644.66;10530521;28;1657;-59
2024/02/10 21:27:11;;;;;;;;;;;;;;;20.75;37.50;92628.19;10511861;28;1977;-60
2024/02/10 21:32:12;;;;;;;;;;;;;;;20.78;38.69;92633.50;10524788;28;1571;-59
2024/02/10 21:37:15;;;;;;;;;;;;;;;20.80;39.15;92636.56;10514180;28;1632;-59
2024/02/10 21:42:15;;;;;;;;;;;;;;;20.80;39.08;92654.97;10537067;28;1734;-59
2024/02/10 21:47:15;;;;;;;;;;;;;;;20.80;39.62;92665.50;10527907;28;1910;-60
2024/02/10 21:52:16;;;;;;;;;;;;;;;20.81;39.89;92661.75;10532259;28;1493;-59
2024/02/10 21:57:16;;;;;;;;;;;;;;;20.80;40.18;92676.03;10496057;28;3084;-60
2024/02/10 22:02:17;;;;;;;;;;;;;;;20.80;40.33;92675.28;10526254;28;1619;-60
2024/02/10 22:07:18;;;;;;;;;;;;;;;20.79;40.29;92677.13;10524732;28;1918;-59
2024/02/10 22:12:19;;;;;;;;;;;;;;;20.78;40.23;92682.75;10527409;28;1642;-60
2024/02/10 22:17:20;;;;;;;;;;;;;;;20.76;40.40;92688.38;10527958;28;1517;-60
2024/02/10 22:22:22;;;;;;;;;;;;;;;20.76;40.31;92691.00;10513599;28;1854;-60
2024/02/10 22:27:23;;;;;;;;;;;;;;;20.74;40.23;92693.22;10531111;28;1890;-59
2024/02/10 22:32:27;;;;;;;;;;;;;;;20.72;40.34;92692.03;10518079;28;1550;-58
2024/02/10 22:37:29;;;;;;;;;;;;;;;20.70;40.46;92697.66;10504038;28;2793;-59
2024/02/10 22:42:31;;;;;;;;;;;;;;;20.68;40.50;92693.84;10537548;28;1906;-58
2024/02/10 22:47:31;;;;;;;;;;;;;;;20.67;40.49;92693.06;10540288;28;1617;-59
2024/02/10 22:52:35;;;;;;;;;;;;;;;20.66;40.30;92694.19;10504009;28;1766;-59
2024/02/10 22:57:36;;;;;;;;;;;;;;;20.64;40.14;92696.41;10535902;28;1486;-59
2024/02/10 23:02:36;;;;;;;;;;;;;;;20.63;40.47;92697.50;10505761;28;1909;-59
2024/02/10 23:07:37;;;;;;;;;;;;;;;20.61;40.26;92697.09;10533962;28;1528;-58
2024/02/10 23:12:37;;;;;;;;;;;;;;;20.60;40.18;92697.44;10518933;28;1568;-59
2024/02/10 23:17:37;;;;;;;;;;;;;;;20.58;40.33;92700.44;10535575;28;1697;-59
2024/02/10 23:22:38;;;;;;;;;;;;;;;20.58;40.48;92702.28;10541779;28;1902;-58
2024/02/10 23:27:39;;;;;;;;;;;;;;;20.55;40.46;92701.09;10521057;28;1525;-58
2024/02/10 23:32:39;;;;;;;;;;;;;;;20.53;40.23;92700.69;10539210;28;2640;-58
2024/02/10 23:37:41;;;;;;;;;;;;;;;20.52;40.41;92709.72;10533165;28;1760;-59
2024/02/10 23:42:42;;;;;;;;;;;;;;;20.51;40.28;92710.03;10539468;28;1959;-59
2024/02/10 23:47:44;;;;;;;;;;;;;;;20.50;40.22;92717.19;10536336;28;1444;-59
2024/02/10 23:52:45;;;;;;;;;;;;;;;20.49;40.32;92709.63;10521208;28;1536;-59
2024/02/10 23:57:45;;;;;;;;;;;;;;;20.46;40.35;92718.97;10521618;28;1670;-59
